EDT,Max TemperatureF,Mean TemperatureF,Min TemperatureF,Max Dew PointF,MeanDew PointF,Min DewpointF,Max Humidity, Mean Humidity, Min Humidity, Max Sea Level PressureIn, Mean Sea Level PressureIn, Min Sea Level PressureIn, Max VisibilityMiles, Mean VisibilityMiles, Min VisibilityMiles, Max Wind SpeedMPH, Mean Wind SpeedMPH, Max Gust SpeedMPH,PrecipitationIn, CloudCover, Events, WindDirDegrees
2013-10-1,78,69,59,63,61,57,100,78,56,30.11,30.06,30.02,10,5,0,16,7,20,0.00,4,Fog,209
2013-10-2,80,71,62,67,64,60,93,78,62,30.14,30.09,30.05,9,5,0,12,5,14,0.00,6,,230
2013-10-3,76,72,67,70,67,64,100,87,74,30.11,30.07,30.01,10,5,0,14,7,17,0.27,7,Rain-Thunderstorm,196
2013-10-4,82,75,67,70,67,64,100,81,62,30.10,30.06,30.03,10,7,2,21,7,25,0.02,4,Rain,189
2013-10-5,78,73,67,72,68,66,97,90,82,30.08,30.02,29.93,10,7,1,21,8,23,0.87,7,Rain-Thunderstorm,202
2013-10-6,73,63,52,68,62,50,100,90,79,29.95,29.83,29.71,10,8,0,25,12,32,2.06,8,Rain-Thunderstorm,206
2013-10-7,61,54,46,48,44,41,93,72,51,30.19,29.97,29.84,10,10,10,20,9,24,T,5,,257
2013-10-8,68,56,43,49,43,41,100,69,37,30.30,30.25,30.19,10,10,7,12,4,16,0.00,0,,100
2013-10-9,73,59,45,49,45,42,86,62,38,30.28,30.23,30.19,10,10,10,10,5,14,0.00,0,,98
2013-10-10,75,60,44,46,43,40,92,61,29,30.22,30.16,30.09,10,10,10,8,2,10,0.00,0,,94
2013-10-11,80,64,47,51,47,42,93,62,30,30.13,30.08,30.04,10,10,10,7,2,9,0.00,0,,66
2013-10-12,78,65,51,60,55,46,96,76,56,30.14,30.08,30.06,10,10,6,10,4,13,0.00,2,,130
2013-10-13,73,62,51,59,51,40,100,69,38,30.33,30.24,30.13,10,7,2,16,7,20,0.00,2,,348
2013-10-14,71,57,43,51,43,40,89,63,36,30.37,30.29,30.22,10,10,10,13,5,17,0.00,0,,37
2013-10-15,71,61,50,64,58,47,100,87,73,30.21,30.05,29.96,10,6,0,23,7,28,0.12,7,Fog-Rain,173
2013-10-16,68,58,47,63,56,43,100,76,52,29.99,29.92,29.89,10,7,1,18,9,22,0.25,7,Rain,233
2013-10-17,54,48,41,48,44,39,96,87,77,29.99,29.93,29.87,10,9,3,20,7,25,0.11,5,Rain,237
2013-10-18,65,55,44,48,43,41,92,68,44,30.04,29.99,29.94,10,9,6,20,10,26,0.00,2,,217
2013-10-19,51,46,41,44,41,36,92,79,66,30.00,29.91,29.87,10,7,2,15,7,18,0.22,6,Rain,287
2013-10-20,62,51,39,42,38,35,85,66,46,30.03,30.00,29.98,10,10,10,21,12,25,0.00,1,,204
2013-10-21,65,55,44,49,42,38,89,69,48,30.00,29.96,29.89,10,10,6,23,13,29,0.05,5,Rain,231
2013-10-22,52,42,31,38,30,23,92,63,33,30.06,29.97,29.88,10,10,7,18,7,24,0.02,5,Rain,283
2013-10-23,45,39,33,37,34,30,100,83,65,30.04,29.91,29.80,10,6,1,24,10,30,0.44,8,Rain-Snow,339
2013-10-24,44,40,35,34,31,28,85,74,62,30.27,30.13,30.04,10,10,2,16,10,20,0.02,8,Snow,266
2013-10-25,50,39,28,31,26,23,78,57,36,30.43,30.36,30.28,10,10,10,18,9,24,0.00,1,,258
2013-10-26,50,41,32,37,30,25,76,64,52,30.27,30.08,29.90,10,10,9,24,12,32,0.00,5,,220
2013-10-27,56,44,32,37,32,30,92,65,38,30.13,30.09,30.06,10,10,9,13,3,16,0.00,3,,250
2013-10-28,62,47,32,37,32,31,89,62,35,30.34,30.23,30.12,10,10,7,9,3,10,0.00,2,,31
2013-10-29,57,46,35,42,39,34,100,78,55,30.39,30.32,30.24,10,8,3,9,4,9,0.01,6,,95
2013-10-30,63,57,50,61,55,44,100,89,77,30.22,30.12,30.00,9,3,0,14,6,22,0.03,8,Fog-Rain,149
2013-10-31,65,61,57,63,59,53,93,83,73,30.00,29.61,29.32,10,5,2,36,17,52,1.25,8,Rain,193